Time,TemperatureF,DewpointF,PressureIn,WindDirection,WindDirectionDegrees,WindSpeedMPH,WindSpeedGustMPH,Humidity,HourlyPrecipIn,Conditions,Clouds,dailyrainin,SoftwareType,DateUTC
2013-01-10 00:02:00,27.0,23.0,30.16,North,360,15.0,-999.0,84,-99.99,,,-99.99,,2013-01-10 06:02:00,
2013-01-10 00:12:00,27.0,23.0,30.16,North,360,15.0,-999.0,84,-99.99,,,-99.99,,2013-01-10 06:12:00,
2013-01-10 00:22:00,27.0,23.0,30.14,SE,134,12.0,-999.0,84,-99.99,,,-99.99,,2013-01-10 06:22:00,
2013-01-10 00:32:00,27.0,23.0,30.14,SE,135,12.0,-999.0,84,-99.99,,,-99.99,,2013-01-10 06:32:00,
2013-01-10 00:42:00,27.0,23.0,30.14,SE,135,12.0,-999.0,84,-99.99,,,-99.99,,2013-01-10 06:42:00,
2013-01-10 00:52:00,26.0,22.0,30.15,SE,136,12.0,-999.0,84,-99.99,,,-99.99,,2013-01-10 06:52:00,
2013-01-10 01:02:00,26.0,22.0,30.15,SE,134,9.0,-999.0,85,-99.99,,,-99.99,,2013-01-10 07:02:00,
2013-01-10 01:12:00,26.0,22.0,30.15,SE,134,9.0,-999.0,85,-99.99,,,-99.99,,2013-01-10 07:12:00,
2013-01-10 01:22:00,26.0,22.0,30.15,ESE,121,9.0,-999.0,86,-99.99,,,-99.99,,2013-01-10 07:22:00,
2013-01-10 01:32:00,26.0,22.0,30.15,ESE,121,9.0,-999.0,86,-99.99,,,-99.99,,2013-01-10 07:32:00,
2013-01-10 01:42:00,26.0,22.0,30.15,ESE,121,9.0,-999.0,86,-99.99,,,-99.99,,2013-01-10 07:42:00,
2013-01-10 01:52:00,27.0,23.0,30.15,SE,145,9.0,-999.0,86,-99.99,,,-99.99,,2013-01-10 07:52:00,
2013-01-10 02:01:00,27.0,23.0,30.15,SSE,156,14.0,-999.0,84,-99.99,,,-99.99,,2013-01-10 08:01:00,
2013-01-10 02:12:00,27.0,23.0,30.15,SSE,156,14.0,-999.0,84,-99.99,,,-99.99,,2013-01-10 08:12:00,
2013-01-10 02:22:00,27.0,23.0,30.15,North,360,15.0,-999.0,84,-99.99,,,-99.99,,2013-01-10 08:22:00,
2013-01-10 02:32:00,27.0,23.0,30.15,SSE,151,13.0,-999.0,84,-99.99,,,-99.99,,2013-01-10 08:32:00,
2013-01-10 02:42:00,27.0,23.0,30.15,SSE,151,13.0,-999.0,84,-99.99,,,-99.99,,2013-01-10 08:42:00,
2013-01-10 02:52:00,28.0,24.0,30.14,North,360,12.0,-999.0,84,-99.99,,,-99.99,,2013-01-10 08:52:00,
2013-01-10 03:02:00,28.0,24.0,30.15,SE,145,12.0,-999.0,84,-99.99,,,-99.99,,2013-01-10 09:02:00,
2013-01-10 03:12:00,28.0,24.0,30.15,SE,145,12.0,-999.0,84,-99.99,,,-99.99,,2013-01-10 09:12:00,
2013-01-10 03:22:00,28.0,24.0,30.14,North,360,13.0,-999.0,83,-99.99,,,-99.99,,2013-01-10 09:22:00,
2013-01-10 03:32:00,29.0,25.0,30.14,SE,146,13.0,-999.0,83,-99.99,,,-99.99,,2013-01-10 09:32:00,
2013-01-10 03:42:00,29.0,25.0,30.14,SE,146,13.0,-999.0,83,-99.99,,,-99.99,,2013-01-10 09:42:00,
2013-01-10 03:52:00,29.0,24.0,30.14,SE,136,12.0,-999.0,82,-99.99,,,-99.99,,2013-01-10 09:52:00,
2013-01-10 04:03:00,29.0,24.0,30.14,SE,144,12.0,-999.0,82,-99.99,,,-99.99,,2013-01-10 10:03:00,
2013-01-10 04:12:00,29.0,24.0,30.14,SE,144,12.0,-999.0,82,-99.99,,,-99.99,,2013-01-10 10:12:00,
2013-01-10 04:22:00,29.0,25.0,30.13,SE,137,12.0,-999.0,83,-99.99,,,-99.99,,2013-01-10 10:22:00,
2013-01-10 04:32:00,29.0,25.0,30.13,North,360,10.0,-999.0,84,-99.99,,,-99.99,,2013-01-10 10:32:00,
2013-01-10 04:42:00,29.0,25.0,30.13,North,360,10.0,-999.0,84,-99.99,,,-99.99,,2013-01-10 10:42:00,
2013-01-10 04:52:00,28.0,24.0,30.12,North,360,9.0,-999.0,84,-99.99,,,-99.99,,2013-01-10 10:52:00,
2013-01-10 05:02:00,29.0,25.0,30.11,SE,142,9.0,-999.0,84,-99.99,,,-99.99,,2013-01-10 11:02:00,
2013-01-10 05:12:00,29.0,25.0,30.11,SE,142,9.0,-999.0,84,-99.99,,,-99.99,,2013-01-10 11:12:00,
2013-01-10 05:22:00,31.0,26.0,30.10,SE,138,14.0,-999.0,82,-99.99,,,-99.99,,2013-01-10 11:22:00,
2013-01-10 05:32:00,31.0,26.0,30.10,North,360,14.0,-999.0,81,-99.99,,,-99.99,,2013-01-10 11:32:00,
2013-01-10 05:42:00,31.0,26.0,30.10,North,360,14.0,-999.0,81,-99.99,,,-99.99,,2013-01-10 11:42:00,
2013-01-10 05:52:00,31.0,26.0,30.10,North,360,14.0,-999.0,81,-99.99,,,-99.99,,2013-01-10 11:52:00,
2013-01-10 06:03:00,30.0,25.0,30.10,North,360,13.0,-999.0,81,-99.99,,,-99.99,,2013-01-10 12:03:00,
2013-01-10 06:12:00,30.0,25.0,30.10,North,360,13.0,-999.0,81,-99.99,,,-99.99,,2013-01-10 12:12:00,
2013-01-10 06:22:00,30.0,25.0,30.09,North,360,11.0,-999.0,82,-99.99,,,-99.99,,2013-01-10 12:22:00,
2013-01-10 06:32:00,30.0,25.0,30.09,North,360,11.0,-999.0,82,-99.99,,,-99.99,,2013-01-10 12:32:00,
2013-01-10 06:42:00,30.0,25.0,30.09,North,360,11.0,-999.0,82,-99.99,,,-99.99,,2013-01-10 12:42:00,
2013-01-10 06:52:00,33.0,27.0,30.09,SE,144,14.0,-999.0,79,-99.99,,,-99.99,,2013-01-10 12:52:00,
2013-01-10 07:02:00,33.0,27.0,30.09,SE,146,14.0,-999.0,79,-99.99,,,-99.99,,2013-01-10 13:02:00,
2013-01-10 07:12:00,33.0,27.0,30.09,SE,146,14.0,-999.0,79,-99.99,,,-99.99,,2013-01-10 13:12:00,
2013-01-10 07:22:00,32.0,27.0,30.09,SE,142,12.0,-999.0,80,-99.99,,,-99.99,,2013-01-10 13:22:00,
2013-01-10 07:32:00,34.0,28.0,30.09,SE,146,18.0,-999.0,78,-99.99,,,-99.99,,2013-01-10 13:32:00,
2013-01-10 07:42:00,34.0,28.0,30.09,SE,146,18.0,-999.0,78,-99.99,,,-99.99,,2013-01-10 13:42:00,
2013-01-10 07:52:00,36.0,29.0,30.09,SSE,148,19.0,-999.0,76,-99.99,,,-99.99,,2013-01-10 13:52:00,
2013-01-10 08:02:00,36.0,29.0,30.08,SE,142,19.0,-999.0,75,-99.99,,,-99.99,,2013-01-10 14:02:00,
2013-01-10 08:12:00,36.0,29.0,30.08,SE,142,19.0,-999.0,75,-99.99,,,-99.99,,2013-01-10 14:12:00,
2013-01-10 08:22:00,36.0,29.0,30.09,North,360,21.0,-999.0,75,-99.99,,,-99.99,,2013-01-10 14:22:00,
2013-01-10 08:33:00,34.0,27.0,30.09,SSE,148,15.0,-999.0,76,-99.99,,,-99.99,,2013-01-10 14:33:00,
2013-01-10 08:43:00,34.0,27.0,30.09,SSE,148,15.0,-999.0,76,-99.99,,,-99.99,,2013-01-10 14:43:00,
2013-01-10 08:53:00,34.0,28.0,30.09,SSE,149,14.0,-999.0,77,-99.99,,,-99.99,,2013-01-10 14:53:00,
2013-01-10 09:03:00,34.0,28.0,30.10,North,360,16.0,-999.0,77,-99.99,,,-99.99,,2013-01-10 15:03:00,
2013-01-10 09:12:00,34.0,28.0,30.10,North,360,16.0,-999.0,77,-99.99,,,-99.99,,2013-01-10 15:12:00,
2013-01-10 09:22:00,34.0,28.0,30.11,SSE,158,14.0,-999.0,77,-99.99,,,-99.99,,2013-01-10 15:22:00,
2013-01-10 09:33:00,32.0,26.0,30.11,SE,134,10.0,-999.0,78,-99.99,,,-99.99,,2013-01-10 15:33:00,
2013-01-10 09:43:00,32.0,26.0,30.11,SE,134,10.0,-999.0,78,-99.99,,,-99.99,,2013-01-10 15:43:00,
2013-01-10 09:53:00,32.0,26.0,30.10,SSE,150,15.0,-999.0,79,-99.99,,,-99.99,,2013-01-10 15:53:00,
2013-01-10 10:02:00,34.0,27.0,30.09,South,169,16.0,-999.0,76,-99.99,,,-99.99,,2013-01-10 16:02:00,
2013-01-10 10:13:00,34.0,27.0,30.09,South,169,16.0,-999.0,76,-99.99,,,-99.99,,2013-01-10 16:13:00,
2013-01-10 10:23:00,34.0,27.0,30.08,SE,141,15.0,-999.0,76,-99.99,,,-99.99,,2013-01-10 16:23:00,
2013-01-10 10:33:00,32.0,26.0,30.08,SSE,152,17.0,-999.0,78,-99.99,,,-99.99,,2013-01-10 16:33:00,
2013-01-10 10:43:00,32.0,26.0,30.08,SSE,152,17.0,-999.0,78,-99.99,,,-99.99,,2013-01-10 16:43:00,
2013-01-10 10:52:00,33.0,27.0,30.07,SSE,153,16.0,-999.0,78,-99.99,,,-99.99,,2013-01-10 16:52:00,
2013-01-10 11:03:00,34.0,28.0,30.06,North,360,15.0,-999.0,77,-99.99,,,-99.99,,2013-01-10 17:03:00,
2013-01-10 11:12:00,34.0,28.0,30.06,North,360,15.0,-999.0,77,-99.99,,,-99.99,,2013-01-10 17:12:00,
2013-01-10 11:22:00,34.0,28.0,30.06,North,360,15.0,-999.0,77,-99.99,,,-99.99,,2013-01-10 17:22:00,
2013-01-10 11:33:00,36.0,29.0,30.04,SSE,163,13.0,-999.0,74,-99.99,,,-99.99,,2013-01-10 17:33:00,
2013-01-10 11:42:00,36.0,29.0,30.04,SSE,163,13.0,-999.0,74,-99.99,,,-99.99,,2013-01-10 17:42:00,
2013-01-10 11:53:00,36.0,29.0,30.04,SSE,163,13.0,-999.0,74,-99.99,,,-99.99,,2013-01-10 17:53:00,
2013-01-10 12:03:00,37.0,28.0,30.01,North,360,16.0,-999.0,71,-99.99,,,-99.99,,2013-01-10 18:03:00,
2013-01-10 12:12:00,36.0,28.0,30.00,North,360,15.0,-999.0,73,-99.99,,,-99.99,,2013-01-10 18:12:00,
2013-01-10 12:23:00,36.0,28.0,30.00,North,360,15.0,-999.0,73,-99.99,,,-99.99,,2013-01-10 18:23:00,
2013-01-10 12:33:00,35.0,27.0,29.98,SE,145,16.0,-999.0,72,-99.99,,,-99.99,,2013-01-10 18:33:00,
2013-01-10 12:43:00,36.0,27.0,29.98,SE,144,14.0,-999.0,70,-99.99,,,-99.99,,2013-01-10 18:43:00,
2013-01-10 12:53:00,36.0,27.0,29.98,SE,144,14.0,-999.0,70,-99.99,,,-99.99,,2013-01-10 18:53:00,
2013-01-10 13:03:00,36.0,27.0,29.98,SE,144,14.0,-999.0,70,-99.99,,,-99.99,,2013-01-10 19:03:00,
2013-01-10 13:13:00,35.0,26.0,29.95,North,360,14.0,-999.0,69,-99.99,,,-99.99,,2013-01-10 19:13:00,
2013-01-10 13:23:00,35.0,26.0,29.95,North,360,14.0,-999.0,69,-99.99,,,-99.99,,2013-01-10 19:23:00,
2013-01-10 13:33:00,35.0,26.0,29.95,North,360,14.0,-999.0,69,-99.99,,,-99.99,,2013-01-10 19:33:00,
2013-01-10 13:43:00,35.0,26.0,29.95,North,360,14.0,-999.0,69,-99.99,,,-99.99,,2013-01-10 19:43:00,
2013-01-10 13:53:00,35.0,26.0,29.92,North,360,17.0,-999.0,69,-99.99,,,-99.99,,2013-01-10 19:53:00,
2013-01-10 14:02:00,35.0,26.0,29.91,SSE,155,16.0,-999.0,68,-99.99,,,-99.99,,2013-01-10 20:02:00,
2013-01-10 14:12:00,35.0,26.0,29.91,SSE,155,16.0,-999.0,68,-99.99,,,-99.99,,2013-01-10 20:12:00,
2013-01-10 14:23:00,35.0,26.0,29.91,SSE,155,16.0,-999.0,68,-99.99,,,-99.99,,2013-01-10 20:23:00,
2013-01-10 14:33:00,34.0,25.0,29.91,SSE,158,13.0,-999.0,69,-99.99,,,-99.99,,2013-01-10 20:33:00,
2013-01-10 14:42:00,34.0,25.0,29.91,SSE,158,13.0,-999.0,69,-99.99,,,-99.99,,2013-01-10 20:42:00,
2013-01-10 14:53:00,34.0,25.0,29.91,North,360,16.0,-999.0,70,-99.99,,,-99.99,,2013-01-10 20:53:00,
2013-01-10 15:03:00,34.0,25.0,29.91,SSE,149,18.0,-999.0,70,-99.99,,,-99.99,,2013-01-10 21:03:00,
2013-01-10 15:12:00,34.0,26.0,29.90,SE,145,18.0,-999.0,71,-99.99,,,-99.99,,2013-01-10 21:12:00,
2013-01-10 15:23:00,34.0,26.0,29.90,SE,145,18.0,-999.0,71,-99.99,,,-99.99,,2013-01-10 21:23:00,
2013-01-10 15:33:00,34.0,26.0,29.89,SE,142,17.0,-999.0,73,-99.99,,,-99.99,,2013-01-10 21:33:00,
2013-01-10 15:42:00,34.0,26.0,29.89,SE,142,17.0,-999.0,73,-99.99,,,-99.99,,2013-01-10 21:42:00,
2013-01-10 15:53:00,34.0,26.0,29.89,SSE,156,19.0,-999.0,73,-99.99,,,-99.99,,2013-01-10 21:53:00,
2013-01-10 16:03:00,34.0,27.0,29.89,SSE,159,18.0,-999.0,74,-99.99,,,-99.99,,2013-01-10 22:03:00,
2013-01-10 16:12:00,34.0,27.0,29.88,SE,142,15.0,-999.0,76,-99.99,,,-99.99,,2013-01-10 22:12:00,
2013-01-10 16:25:00,34.0,27.0,29.88,SE,142,15.0,-999.0,76,-99.99,,,-99.99,,2013-01-10 22:25:00,
2013-01-10 16:33:00,33.0,28.0,29.88,SSE,167,17.0,-999.0,82,-99.99,,,-99.99,,2013-01-10 22:33:00,
2013-01-10 16:43:00,33.0,28.0,29.88,SSE,167,17.0,-999.0,82,-99.99,,,-99.99,,2013-01-10 22:43:00,
2013-01-10 17:02:00,32.0,29.0,29.86,SSE,148,14.0,-999.0,88,-99.99,,,-99.99,,2013-01-10 23:02:00,
2013-01-10 17:12:00,32.0,29.0,29.85,SSE,147,15.0,-999.0,90,-99.99,,,-99.99,,2013-01-10 23:12:00,
2013-01-10 17:23:00,32.0,29.0,29.85,SSE,147,15.0,-999.0,90,-99.99,,,-99.99,,2013-01-10 23:23:00,
2013-01-10 17:33:00,32.0,29.0,29.84,North,360,16.0,-999.0,90,-99.99,,,-99.99,,2013-01-10 23:33:00,
2013-01-10 17:43:00,32.0,29.0,29.84,North,360,16.0,-999.0,90,-99.99,,,-99.99,,2013-01-10 23:43:00,
2013-01-10 17:53:00,32.0,30.0,29.83,North,360,15.0,-999.0,91,-99.99,,,-99.99,,2013-01-10 23:53:00,
2013-01-10 18:02:00,32.0,29.0,29.82,North,360,14.0,-999.0,90,-99.99,,,-99.99,,2013-01-11 00:02:00,
2013-01-10 18:12:00,32.0,29.0,29.80,North,360,17.0,-999.0,90,-99.99,,,-99.99,,2013-01-11 00:12:00,
2013-01-10 18:33:00,32.0,29.0,29.79,North,360,19.0,-999.0,89,-99.99,,,-99.99,,2013-01-11 00:33:00,
2013-01-10 18:42:00,32.0,29.0,29.79,North,360,19.0,-999.0,89,-99.99,,,-99.99,,2013-01-11 00:42:00,
2013-01-10 18:52:00,32.0,29.0,29.78,North,360,18.0,-999.0,89,-99.99,,,-99.99,,2013-01-11 00:52:00,
2013-01-10 19:03:00,32.0,29.0,29.76,North,360,17.0,-999.0,88,-99.99,,,-99.99,,2013-01-11 01:03:00,
2013-01-10 19:13:00,32.0,29.0,29.75,South,179,18.0,-999.0,89,-99.99,,,-99.99,,2013-01-11 01:13:00,
2013-01-10 19:23:00,32.0,29.0,29.75,South,179,18.0,-999.0,89,-99.99,,,-99.99,,2013-01-11 01:23:00,
2013-01-10 19:33:00,32.0,29.0,29.74,SE,142,17.0,-999.0,90,-99.99,,,-99.99,,2013-01-11 01:33:00,
2013-01-10 19:43:00,32.0,29.0,29.74,SE,142,17.0,-999.0,90,-99.99,,,-99.99,,2013-01-11 01:43:00,
2013-01-10 19:52:00,32.0,29.0,29.73,North,360,19.0,-999.0,90,-99.99,,,-99.99,,2013-01-11 01:52:00,
2013-01-10 20:03:00,32.0,30.0,29.73,SSE,151,17.0,-999.0,91,-99.99,,,-99.99,,2013-01-11 02:03:00,
2013-01-10 20:13:00,32.0,30.0,29.73,SSE,151,17.0,-999.0,91,-99.99,,,-99.99,,2013-01-11 02:13:00,
2013-01-10 20:23:00,32.0,30.0,29.73,North,360,18.0,-999.0,91,-99.99,,,-99.99,,2013-01-11 02:23:00,
2013-01-10 20:43:00,32.0,30.0,29.72,North,360,18.0,-999.0,92,-99.99,,,-99.99,,2013-01-11 02:43:00,
2013-01-10 20:53:00,32.0,30.0,29.72,North,360,18.0,-999.0,92,-99.99,,,-99.99,,2013-01-11 02:53:00,
2013-01-10 21:02:00,32.0,30.0,29.71,North,360,16.0,-999.0,92,-99.99,,,-99.99,,2013-01-11 03:02:00,
2013-01-10 21:12:00,32.0,30.0,29.71,ESE,105,17.0,-999.0,93,-99.99,,,-99.99,,2013-01-11 03:12:00,
2013-01-10 21:23:00,32.0,30.0,29.71,ESE,105,17.0,-999.0,93,-99.99,,,-99.99,,2013-01-11 03:23:00,
2013-01-10 21:33:00,32.0,30.0,29.70,SE,140,16.0,-999.0,93,-99.99,,,-99.99,,2013-01-11 03:33:00,
2013-01-10 21:43:00,32.0,30.0,29.70,SE,140,16.0,-999.0,93,-99.99,,,-99.99,,2013-01-11 03:43:00,
2013-01-10 21:52:00,32.0,30.0,29.69,SE,136,14.0,-999.0,93,-99.99,,,-99.99,,2013-01-11 03:52:00,
2013-01-10 22:02:00,31.0,29.0,29.67,SSE,157,14.0,-999.0,93,-99.99,,,-99.99,,2013-01-11 04:02:00,
2013-01-10 22:12:00,31.0,29.0,29.67,SSE,157,14.0,-999.0,93,-99.99,,,-99.99,,2013-01-11 04:12:00,
2013-01-10 22:22:00,31.0,29.0,29.66,SSE,147,15.0,-999.0,93,-99.99,,,-99.99,,2013-01-11 04:22:00,
2013-01-10 22:33:00,31.0,29.0,29.65,SSE,168,14.0,-999.0,94,-99.99,,,-99.99,,2013-01-11 04:33:00,
2013-01-10 22:42:00,31.0,29.0,29.65,SSE,168,14.0,-999.0,94,-99.99,,,-99.99,,2013-01-11 04:42:00,
2013-01-10 22:52:00,31.0,29.0,29.65,SE,142,15.0,-999.0,94,-99.99,,,-99.99,,2013-01-11 04:52:00,
2013-01-10 23:03:00,31.0,29.0,29.64,SE,144,15.0,-999.0,94,-99.99,,,-99.99,,2013-01-11 05:03:00,
2013-01-10 23:12:00,31.0,29.0,29.64,SE,144,15.0,-999.0,94,-99.99,,,-99.99,,2013-01-11 05:12:00,
2013-01-10 23:22:00,31.0,29.0,29.65,SSE,153,11.0,-999.0,94,-99.99,,,-99.99,,2013-01-11 05:22:00,
2013-01-10 23:33:00,31.0,29.0,29.65,SSE,153,11.0,-999.0,94,-99.99,,,-99.99,,2013-01-11 05:33:00,
2013-01-10 23:42:00,31.0,29.0,29.65,SSE,153,11.0,-999.0,94,-99.99,,,-99.99,,2013-01-11 05:42:00,
2013-01-10 23:52:00,31.0,29.0,29.62,North,360,0.0,-999.0,94,-99.99,,,-99.99,,2013-01-11 05:52:00,